createdAt,value
2019-02-21T00:00:03.469Z,18.81
2019-02-21T00:01:02.663Z,18.81
2019-02-21T00:02:10.838Z,18.81
2019-02-21T00:03:07.473Z,18.81
2019-02-21T00:04:04.110Z,18.81
2019-02-21T00:05:00.689Z,18.81
2019-02-21T00:05:57.373Z,18.81
2019-02-21T00:06:53.990Z,18.81
2019-02-21T00:07:50.817Z,18.81
2019-02-21T00:08:47.412Z,18.81
2019-02-21T00:09:44.020Z,18.81
2019-02-21T00:10:40.622Z,18.81
2019-02-21T00:11:37.257Z,18.81
2019-02-21T00:12:34.019Z,18.81
2019-02-21T00:13:30.617Z,18.81
2019-02-21T00:14:27.251Z,18.81
2019-02-21T00:15:23.853Z,18.81
2019-02-21T00:16:20.592Z,18.81
2019-02-21T00:17:17.294Z,18.75
2019-02-21T00:18:13.887Z,18.75
2019-02-21T00:19:10.649Z,18.75
2019-02-21T00:20:07.239Z,18.75
2019-02-21T00:21:03.848Z,18.75
2019-02-21T00:22:00.737Z,18.75
2019-02-21T00:22:57.441Z,18.75
2019-02-21T00:23:54.025Z,18.75
2019-02-21T00:24:50.656Z,18.75
2019-02-21T00:25:47.275Z,18.75
2019-02-21T00:26:44.357Z,18.75
2019-02-21T00:27:41.152Z,18.75
2019-02-21T00:28:37.750Z,18.75
2019-02-21T00:29:34.403Z,18.75
2019-02-21T00:30:35.204Z,18.75
2019-02-21T00:31:29.909Z,18.75
2019-02-21T00:32:26.557Z,18.75
2019-02-21T00:33:23.189Z,18.75
2019-02-21T00:34:20.013Z,18.75
2019-02-21T00:35:16.657Z,18.75
2019-02-21T00:36:13.241Z,18.75
2019-02-21T00:37:09.824Z,18.75
2019-02-21T00:38:06.413Z,18.75
2019-02-21T00:39:04.335Z,18.75
2019-02-21T00:40:01.029Z,18.75
2019-02-21T00:40:57.634Z,18.69
2019-02-21T00:41:54.520Z,18.69
2019-02-21T00:42:51.116Z,18.69
2019-02-21T00:43:47.753Z,18.69
2019-02-21T00:44:44.361Z,18.69
2019-02-21T00:45:40.988Z,18.69
2019-02-21T00:46:37.586Z,18.69
2019-02-21T00:47:34.649Z,18.69
2019-02-21T00:48:31.237Z,18.69
2019-02-21T00:49:28.141Z,18.69
2019-02-21T00:50:24.723Z,18.69
2019-02-21T00:51:21.345Z,18.69
2019-02-21T00:52:17.943Z,18.69
2019-02-21T00:53:14.853Z,18.69
2019-02-21T00:54:11.434Z,18.69
2019-02-21T00:55:08.049Z,18.69
2019-02-21T00:56:04.716Z,18.69
2019-02-21T00:57:01.322Z,18.69
2019-02-21T00:57:58.061Z,18.69
2019-02-21T00:58:54.765Z,18.69
2019-02-21T00:59:51.392Z,18.69
2019-02-21T01:00:48.089Z,18.69
2019-02-21T01:01:44.856Z,18.69
2019-02-21T01:02:41.452Z,18.69
2019-02-21T01:03:38.124Z,18.69
2019-02-21T01:04:34.730Z,18.62
2019-02-21T01:05:31.384Z,18.69
2019-02-21T01:06:28.170Z,18.62
2019-02-21T01:07:24.870Z,18.62
2019-02-21T01:08:21.473Z,18.62
2019-02-21T01:09:18.105Z,18.62
2019-02-21T01:10:14.969Z,18.62
2019-02-21T01:11:11.696Z,18.62
2019-02-21T01:12:08.638Z,18.62
2019-02-21T01:13:05.222Z,18.62
2019-02-21T01:14:02.007Z,18.62
2019-02-21T01:14:58.829Z,18.62
2019-02-21T01:15:55.415Z,18.62
2019-02-21T01:16:52.027Z,18.62
2019-02-21T01:17:48.624Z,18.62
2019-02-21T01:18:45.197Z,18.62
2019-02-21T01:19:41.805Z,18.62
2019-02-21T01:20:38.641Z,18.62
2019-02-21T01:21:35.248Z,18.62
2019-02-21T01:22:31.853Z,18.62
2019-02-21T01:23:28.591Z,18.62
2019-02-21T01:24:25.501Z,18.62
2019-02-21T01:25:22.089Z,18.62
2019-02-21T01:26:18.713Z,18.56
2019-02-21T01:27:15.313Z,18.62
2019-02-21T01:28:12.210Z,18.62
2019-02-21T01:29:08.817Z,18.62
2019-02-21T01:30:05.414Z,18.62
2019-02-21T01:31:01.981Z,18.56
2019-02-21T01:31:58.594Z,18.62
2019-02-21T01:32:55.214Z,18.56
2019-02-21T01:33:51.819Z,18.56
2019-02-21T01:34:48.418Z,18.56
2019-02-21T01:35:45.366Z,18.56
2019-02-21T01:36:41.953Z,18.56
2019-02-21T01:37:38.914Z,18.56
2019-02-21T01:38:35.638Z,18.56
2019-02-21T01:39:32.321Z,18.56
2019-02-21T01:40:29.086Z,18.56
2019-02-21T01:41:25.673Z,18.56
2019-02-21T01:42:22.286Z,18.56
2019-02-21T01:43:18.907Z,18.56
2019-02-21T01:44:15.571Z,18.56
2019-02-21T01:45:12.401Z,18.56
2019-02-21T01:46:09.102Z,18.56
2019-02-21T01:47:05.698Z,18.56
2019-02-21T01:48:02.290Z,18.56
2019-02-21T01:48:59.554Z,18.56
2019-02-21T01:49:56.341Z,18.56
2019-02-21T01:50:53.023Z,18.56
2019-02-21T01:51:49.636Z,18.56
2019-02-21T01:52:46.260Z,18.56
2019-02-21T01:53:42.968Z,18.56
2019-02-21T01:54:39.557Z,18.56
2019-02-21T01:55:39.116Z,18.56
2019-02-21T01:56:35.693Z,18.56
2019-02-21T01:57:32.583Z,18.56
2019-02-21T01:58:29.195Z,18.56
2019-02-21T01:59:25.888Z,18.50
2019-02-21T02:00:22.620Z,18.50
2019-02-21T02:01:20.488Z,18.50
2019-02-21T02:02:17.135Z,18.50
2019-02-21T02:03:13.793Z,18.50
2019-02-21T02:04:10.582Z,18.50
2019-02-21T02:05:07.249Z,18.50
2019-02-21T02:06:03.871Z,18.50
2019-02-21T02:07:00.462Z,18.50
2019-02-21T02:07:57.098Z,18.50
2019-02-21T02:08:53.783Z,18.50
2019-02-21T02:09:50.364Z,18.50
2019-02-21T02:10:47.053Z,18.50
2019-02-21T02:11:43.638Z,18.50
2019-02-21T02:12:40.261Z,18.50
2019-02-21T02:13:36.898Z,18.50
2019-02-21T02:14:33.569Z,18.50
2019-02-21T02:15:30.169Z,18.50
2019-02-21T02:16:26.931Z,18.50
2019-02-21T02:17:23.599Z,18.50
2019-02-21T02:18:20.204Z,18.50
2019-02-21T02:19:16.793Z,18.50
2019-02-21T02:20:13.369Z,18.50
2019-02-21T02:21:10.014Z,18.50
2019-02-21T02:22:06.642Z,18.50
2019-02-21T02:23:03.473Z,18.50
2019-02-21T02:24:00.081Z,18.50
2019-02-21T02:24:56.685Z,18.50
2019-02-21T02:25:53.273Z,18.44
2019-02-21T02:26:49.962Z,18.50
2019-02-21T02:27:46.777Z,18.44
2019-02-21T02:28:43.373Z,18.50
2019-02-21T02:29:39.969Z,18.44
2019-02-21T02:30:36.579Z,18.44
2019-02-21T02:31:33.656Z,18.44
2019-02-21T02:32:30.358Z,18.44
2019-02-21T02:33:27.073Z,18.44
2019-02-21T02:34:23.773Z,18.44
2019-02-21T02:35:20.376Z,18.44
2019-02-21T02:36:17.002Z,18.44
2019-02-21T02:37:13.897Z,18.44
2019-02-21T02:38:10.486Z,18.44
2019-02-21T02:39:07.101Z,18.44
2019-02-21T02:40:03.714Z,18.44
2019-02-21T02:41:00.611Z,18.44
2019-02-21T02:41:57.287Z,18.44
2019-02-21T02:42:53.886Z,18.44
2019-02-21T02:43:50.494Z,18.44
2019-02-21T02:44:47.451Z,18.44
2019-02-21T02:45:44.038Z,18.44
2019-02-21T02:46:40.628Z,18.44
2019-02-21T02:47:37.222Z,18.44
2019-02-21T02:48:33.822Z,18.44
2019-02-21T02:49:30.770Z,18.44
2019-02-21T02:50:27.373Z,18.44
2019-02-21T02:51:23.960Z,18.44
2019-02-21T02:52:20.549Z,18.44
2019-02-21T02:53:17.141Z,18.44
2019-02-21T02:54:13.736Z,18.44
2019-02-21T02:55:10.321Z,18.44
2019-02-21T02:56:07.207Z,18.44
2019-02-21T02:57:03.877Z,18.44
2019-02-21T02:58:00.726Z,18.44
2019-02-21T02:58:57.325Z,18.37
2019-02-21T02:59:53.930Z,18.37
2019-02-21T03:00:50.527Z,18.37
2019-02-21T03:01:47.105Z,18.37
2019-02-21T03:02:43.710Z,18.37
2019-02-21T03:03:40.322Z,18.37
2019-02-21T03:04:36.959Z,18.37
2019-02-21T03:05:33.866Z,18.37
2019-02-21T03:06:30.534Z,18.37
2019-02-21T03:07:27.173Z,18.37
2019-02-21T03:08:23.846Z,18.37
2019-02-21T03:09:20.536Z,18.37
2019-02-21T03:10:17.551Z,18.37
2019-02-21T03:11:14.173Z,18.37
2019-02-21T03:12:10.760Z,18.37
2019-02-21T03:13:07.424Z,18.37
2019-02-21T03:14:04.097Z,18.37
2019-02-21T03:15:00.967Z,18.37
2019-02-21T03:15:57.541Z,18.37
2019-02-21T03:16:54.137Z,18.37
2019-02-21T03:17:50.750Z,18.37
2019-02-21T03:18:47.769Z,18.37
2019-02-21T03:19:44.360Z,18.37
2019-02-21T03:20:40.971Z,18.37
2019-02-21T03:21:37.569Z,18.37
2019-02-21T03:22:34.144Z,18.37
2019-02-21T03:23:30.999Z,18.37
2019-02-21T03:24:27.629Z,18.37
2019-02-21T03:25:24.359Z,18.37
2019-02-21T03:26:20.950Z,18.37
2019-02-21T03:27:17.811Z,18.37
2019-02-21T03:28:14.397Z,18.37
2019-02-21T03:29:10.981Z,18.37
2019-02-21T03:30:11.916Z,18.37
2019-02-21T03:31:06.262Z,18.37
2019-02-21T03:32:03.089Z,18.37
2019-02-21T03:32:59.751Z,18.31
2019-02-21T03:33:56.371Z,18.31
2019-02-21T03:34:53.005Z,18.31
2019-02-21T03:35:49.959Z,18.31
2019-02-21T03:36:46.950Z,18.31
2019-02-21T03:37:43.556Z,18.31
2019-02-21T03:38:40.256Z,18.31
2019-02-21T03:39:37.137Z,18.31
2019-02-21T03:40:33.750Z,18.31
2019-02-21T03:41:30.390Z,18.31
2019-02-21T03:42:27.045Z,18.31
2019-02-21T03:43:23.774Z,18.31
2019-02-21T03:44:20.474Z,18.31
2019-02-21T03:45:17.065Z,18.31
2019-02-21T03:46:13.677Z,18.31
2019-02-21T03:47:10.277Z,18.31
2019-02-21T03:48:06.867Z,18.31
2019-02-21T03:49:03.738Z,18.31
2019-02-21T03:50:00.437Z,18.31
2019-02-21T03:50:57.021Z,18.31
2019-02-21T03:51:53.668Z,18.31
2019-02-21T03:52:50.274Z,18.31
2019-02-21T03:53:47.082Z,18.31
2019-02-21T03:54:43.683Z,18.31
2019-02-21T03:55:40.360Z,18.31
2019-02-21T03:56:36.966Z,18.31
2019-02-21T03:57:33.878Z,18.31
2019-02-21T03:58:30.481Z,18.31
2019-02-21T03:59:27.058Z,18.31
2019-02-21T04:00:23.654Z,18.31
2019-02-21T04:01:20.254Z,18.31
2019-02-21T04:02:17.122Z,18.31
2019-02-21T04:03:13.805Z,18.31
2019-02-21T04:04:10.423Z,18.31
2019-02-21T04:05:07.105Z,18.31
2019-02-21T04:06:03.956Z,18.25
2019-02-21T04:07:00.677Z,18.31
2019-02-21T04:07:57.554Z,18.31
2019-02-21T04:08:54.227Z,18.25
2019-02-21T04:09:50.912Z,18.25
2019-02-21T04:10:48.205Z,18.25
2019-02-21T04:11:44.863Z,18.25
2019-02-21T04:12:41.522Z,18.25
2019-02-21T04:13:38.174Z,18.25
2019-02-21T04:14:34.772Z,18.25
2019-02-21T04:15:31.370Z,18.25
2019-02-21T04:16:28.161Z,18.25
2019-02-21T04:17:24.802Z,18.25
2019-02-21T04:18:21.388Z,18.25
2019-02-21T04:19:18.001Z,18.25
2019-02-21T04:20:14.583Z,18.25
2019-02-21T04:21:11.390Z,18.25
2019-02-21T04:22:08.079Z,18.25
2019-02-21T04:23:05.045Z,18.25
2019-02-21T04:24:01.689Z,18.25
2019-02-21T04:24:58.274Z,18.25
2019-02-21T04:25:54.878Z,18.25
2019-02-21T04:26:51.998Z,18.25
2019-02-21T04:27:48.740Z,18.25
2019-02-21T04:28:45.890Z,18.25
2019-02-21T04:29:42.713Z,18.25
2019-02-21T04:30:39.309Z,18.25
2019-02-21T04:31:36.283Z,18.25
2019-02-21T04:32:32.904Z,18.25
2019-02-21T04:33:29.703Z,18.25
2019-02-21T04:34:26.382Z,18.25
2019-02-21T04:35:22.983Z,18.25
2019-02-21T04:36:19.562Z,18.25
2019-02-21T04:37:16.167Z,18.25
2019-02-21T04:38:12.784Z,18.25
2019-02-21T04:39:09.369Z,18.25
2019-02-21T04:40:06.521Z,18.19
2019-02-21T04:41:03.188Z,18.25
2019-02-21T04:41:59.801Z,18.25
2019-02-21T04:42:56.486Z,18.25
2019-02-21T04:43:53.131Z,18.25
2019-02-21T04:44:49.996Z,18.19
2019-02-21T04:45:46.684Z,18.19
2019-02-21T04:46:43.359Z,18.19
2019-02-21T04:47:40.190Z,18.25
2019-02-21T04:48:36.914Z,18.19
2019-02-21T04:49:33.494Z,18.19
2019-02-21T04:50:30.110Z,18.19
2019-02-21T04:51:26.805Z,18.19
2019-02-21T04:52:23.388Z,18.19
2019-02-21T04:53:20.197Z,18.19
2019-02-21T04:54:16.807Z,18.19
2019-02-21T04:55:13.394Z,18.19
2019-02-21T04:56:10.035Z,18.19
2019-02-21T04:57:06.714Z,18.19
2019-02-21T04:58:03.303Z,18.19
2019-02-21T04:59:00.014Z,18.19
2019-02-21T04:59:56.601Z,18.19
2019-02-21T05:00:53.218Z,18.19
2019-02-21T05:01:49.797Z,18.19
2019-02-21T05:02:46.402Z,18.19
2019-02-21T05:03:43.011Z,18.19
2019-02-21T05:04:39.609Z,18.19
2019-02-21T05:05:36.486Z,18.19
2019-02-21T05:06:33.162Z,18.19
2019-02-21T05:07:29.754Z,18.19
2019-02-21T05:08:26.346Z,18.19
2019-02-21T05:09:22.956Z,18.19
2019-02-21T05:10:19.896Z,18.19
2019-02-21T05:11:16.853Z,18.19
2019-02-21T05:12:13.442Z,18.12
2019-02-21T05:13:10.051Z,18.12
2019-02-21T05:14:06.756Z,18.12
2019-02-21T05:15:03.461Z,18.12
2019-02-21T05:16:00.088Z,18.12
2019-02-21T05:16:56.753Z,18.12
2019-02-21T05:17:53.349Z,18.12
2019-02-21T05:18:49.933Z,18.06
2019-02-21T05:19:46.534Z,18.06
2019-02-21T05:20:43.140Z,18.06
2019-02-21T05:21:39.738Z,18.00
2019-02-21T05:22:36.322Z,18.00
2019-02-21T05:23:33.016Z,17.94
2019-02-21T05:24:29.615Z,17.94
2019-02-21T05:25:26.451Z,17.87
2019-02-21T05:26:28.644Z,17.81
2019-02-21T05:27:44.753Z,17.75
2019-02-21T05:28:41.398Z,17.62
2019-02-21T05:29:38.095Z,17.50
2019-02-21T05:30:36.343Z,17.37
2019-02-21T05:31:43.207Z,17.31
2019-02-21T05:32:55.529Z,17.19
2019-02-21T05:34:06.370Z,17.06
2019-02-21T05:35:14.569Z,16.94
2019-02-21T05:36:29.329Z,16.87
2019-02-21T05:37:48.694Z,16.81
2019-02-21T05:39:10.949Z,16.69
2019-02-21T05:40:33.345Z,16.69
2019-02-21T05:41:55.461Z,16.62
2019-02-21T05:43:17.473Z,16.62
2019-02-21T05:44:33.608Z,16.56
2019-02-21T05:45:52.577Z,16.56
2019-02-21T05:47:11.448Z,16.50
2019-02-21T05:48:14.325Z,16.50
2019-02-21T05:49:28.966Z,16.50
2019-02-21T05:50:31.921Z,16.44
2019-02-21T05:51:57.121Z,16.44
2019-02-21T05:53:01.082Z,16.44
2019-02-21T05:54:12.827Z,16.37
2019-02-21T05:55:18.689Z,16.37
2019-02-21T05:56:40.818Z,16.37
2019-02-21T05:57:59.767Z,16.37
2019-02-21T05:59:05.232Z,16.37
2019-02-21T06:00:14.635Z,16.37
2019-02-21T06:01:29.396Z,16.44
2019-02-21T06:02:53.477Z,16.50
2019-02-21T06:04:09.353Z,16.62
2019-02-21T06:05:11.930Z,16.75
2019-02-21T06:06:23.505Z,16.94
2019-02-21T06:07:30.070Z,17.19
2019-02-21T06:08:55.498Z,17.44
2019-02-21T06:10:04.865Z,17.81
2019-02-21T06:11:30.407Z,18.25
2019-02-21T06:12:34.277Z,18.81
2019-02-21T06:13:56.900Z,19.25
2019-02-21T06:14:59.693Z,19.87
2019-02-21T06:16:21.595Z,20.37
2019-02-21T06:17:43.674Z,21.12
2019-02-21T06:18:58.533Z,21.87
2019-02-21T06:20:17.850Z,22.62
2019-02-21T06:21:33.481Z,23.38
2019-02-21T06:23:01.971Z,24.12
2019-02-21T06:24:08.850Z,24.87
2019-02-21T06:25:24.944Z,25.50
2019-02-21T06:26:29.237Z,26.19
2019-02-21T06:27:45.333Z,26.69
2019-02-21T06:29:01.421Z,27.25
2019-02-21T06:30:05.272Z,29.31
2019-02-21T06:31:05.106Z,29.19
2019-02-21T06:32:01.842Z,27.25
2019-02-21T06:33:05.025Z,29.00
2019-02-21T06:33:57.409Z,33.00
2019-02-21T06:34:54.261Z,35.06
2019-02-21T06:35:50.865Z,35.63
2019-02-21T06:36:47.497Z,35.38
2019-02-21T06:37:44.121Z,35.31
2019-02-21T06:38:40.701Z,35.63
2019-02-21T06:39:37.321Z,35.94
2019-02-21T06:40:36.463Z,36.06
2019-02-21T06:41:32.937Z,35.94
2019-02-21T06:42:29.649Z,35.06
2019-02-21T06:43:26.314Z,33.38
2019-02-21T06:44:23.010Z,31.25
2019-02-21T06:45:19.630Z,29.50
2019-02-21T06:46:16.323Z,29.19
2019-02-21T06:47:13.141Z,30.06
2019-02-21T06:48:09.783Z,31.44
2019-02-21T06:49:06.388Z,32.75
2019-02-21T06:50:03.004Z,33.88
2019-02-21T06:50:59.675Z,34.81
2019-02-21T06:51:56.399Z,35.50
2019-02-21T06:52:53.066Z,36.06
2019-02-21T06:53:49.706Z,36.50
2019-02-21T06:54:46.300Z,36.81
2019-02-21T06:55:42.882Z,37.06
2019-02-21T06:56:39.494Z,37.38
2019-02-21T06:57:36.164Z,37.63
2019-02-21T06:58:32.835Z,37.81
2019-02-21T06:59:29.535Z,38.06
2019-02-21T07:00:26.135Z,38.25
2019-02-21T07:01:28.184Z,38.50
2019-02-21T07:02:21.225Z,38.69
2019-02-21T07:03:17.854Z,38.81
2019-02-21T07:04:14.729Z,38.75
2019-02-21T07:05:11.341Z,38.50
2019-02-21T07:06:07.925Z,38.25
2019-02-21T07:07:04.515Z,38.06
2019-02-21T07:08:01.196Z,37.81
2019-02-21T07:08:59.824Z,37.69
2019-02-21T07:09:56.353Z,37.56
2019-02-21T07:10:53.097Z,37.44
2019-02-21T07:11:49.822Z,37.38
2019-02-21T07:12:46.413Z,37.25
2019-02-21T07:13:43.035Z,37.06
2019-02-21T07:14:39.647Z,36.75
2019-02-21T07:15:36.453Z,36.19
2019-02-21T07:16:33.052Z,35.31
2019-02-21T07:17:29.660Z,34.19
2019-02-21T07:18:28.748Z,32.94
2019-02-21T07:19:24.810Z,31.75
2019-02-21T07:20:21.507Z,31.37
2019-02-21T07:21:18.082Z,32.06
2019-02-21T07:22:18.127Z,33.50
2019-02-21T07:23:13.472Z,35.13
2019-02-21T07:24:10.206Z,36.63
2019-02-21T07:25:15.815Z,37.81
2019-02-21T07:26:15.375Z,38.38
2019-02-21T07:27:12.077Z,38.38
2019-02-21T07:28:11.753Z,38.25
2019-02-21T07:29:07.549Z,38.06
2019-02-21T07:30:04.147Z,37.88
2019-02-21T07:31:00.733Z,37.69
2019-02-21T07:31:57.348Z,37.56
2019-02-21T07:32:53.948Z,37.44
2019-02-21T07:33:50.774Z,37.25
2019-02-21T07:34:47.454Z,37.00
2019-02-21T07:35:44.146Z,36.50
2019-02-21T07:36:40.797Z,35.75
2019-02-21T07:37:37.568Z,34.81
2019-02-21T07:38:34.259Z,33.69
2019-02-21T07:39:36.035Z,32.56
2019-02-21T07:40:29.353Z,31.62
2019-02-21T07:41:25.953Z,31.50
2019-02-21T07:42:22.597Z,32.56
2019-02-21T07:43:20.641Z,34.13
2019-02-21T07:44:17.617Z,35.88
2019-02-21T07:45:14.300Z,37.25
2019-02-21T07:46:11.242Z,38.00
2019-02-21T07:47:07.930Z,38.19
2019-02-21T07:48:04.538Z,38.13
2019-02-21T07:49:01.328Z,38.00
2019-02-21T07:49:57.933Z,37.81
2019-02-21T07:50:54.538Z,37.63
2019-02-21T07:51:51.168Z,37.44
2019-02-21T07:52:47.793Z,37.25
2019-02-21T07:53:44.380Z,36.94
2019-02-21T07:54:41.094Z,36.50
2019-02-21T07:55:37.741Z,35.88
2019-02-21T07:56:41.526Z,35.00
2019-02-21T07:57:32.967Z,34.00
2019-02-21T07:58:29.841Z,32.88
2019-02-21T07:59:26.472Z,31.81
2019-02-21T08:00:23.498Z,31.31
2019-02-21T08:01:20.100Z,31.94
2019-02-21T08:02:16.674Z,33.38
2019-02-21T08:03:13.285Z,35.00
2019-02-21T08:04:10.325Z,36.56
2019-02-21T08:05:07.319Z,37.50
2019-02-21T08:06:04.024Z,37.88
2019-02-21T08:07:00.652Z,37.88
2019-02-21T08:07:57.496Z,37.75
2019-02-21T08:08:54.107Z,37.56
2019-02-21T08:09:50.757Z,37.38
2019-02-21T08:10:47.632Z,37.19
2019-02-21T08:11:44.319Z,36.88
2019-02-21T08:12:40.905Z,36.50
2019-02-21T08:13:37.525Z,36.00
2019-02-21T08:14:34.126Z,35.25
2019-02-21T08:15:30.755Z,34.38
2019-02-21T08:16:27.514Z,33.38
2019-02-21T08:17:24.155Z,32.31
2019-02-21T08:18:20.777Z,31.44
2019-02-21T08:19:17.995Z,31.31
2019-02-21T08:20:14.573Z,32.19
2019-02-21T08:21:11.199Z,33.69
2019-02-21T08:22:07.921Z,35.25
2019-02-21T08:23:04.514Z,36.63
2019-02-21T08:24:01.117Z,37.44
2019-02-21T08:24:57.722Z,37.63
2019-02-21T08:25:54.351Z,37.56
2019-02-21T08:26:51.286Z,37.38
2019-02-21T08:27:47.966Z,37.19
2019-02-21T08:28:44.597Z,36.94
2019-02-21T08:29:41.421Z,36.56
2019-02-21T08:30:38.120Z,36.13
2019-02-21T08:31:34.952Z,35.56
2019-02-21T08:32:37.429Z,34.81
2019-02-21T08:33:47.101Z,33.88
2019-02-21T08:34:48.172Z,32.69
2019-02-21T08:35:44.680Z,31.69
2019-02-21T08:36:41.324Z,31.12
2019-02-21T08:37:37.926Z,31.37
2019-02-21T08:38:34.548Z,32.50
2019-02-21T08:39:31.179Z,34.06
2019-02-21T08:40:28.270Z,35.63
2019-02-21T08:41:25.881Z,36.81
2019-02-21T08:42:22.714Z,37.25
2019-02-21T08:43:19.334Z,37.31
2019-02-21T08:44:15.929Z,37.19
2019-02-21T08:45:12.547Z,37.00
2019-02-21T08:46:09.241Z,36.69
2019-02-21T08:47:05.989Z,36.25
2019-02-21T08:48:02.586Z,35.75
2019-02-21T08:48:59.212Z,35.19
2019-02-21T08:49:55.822Z,34.44
2019-02-21T08:50:52.525Z,33.69
2019-02-21T08:51:49.398Z,32.81
2019-02-21T08:52:46.010Z,31.94
2019-02-21T08:53:42.692Z,31.19
2019-02-21T08:54:39.316Z,30.88
2019-02-21T08:55:36.147Z,31.62
2019-02-21T08:56:32.834Z,32.94
2019-02-21T08:57:29.748Z,34.50
2019-02-21T08:58:26.434Z,35.94
2019-02-21T08:59:23.041Z,36.81
2019-02-21T09:00:20.011Z,37.06
2019-02-21T09:01:16.722Z,37.00
2019-02-21T09:02:13.525Z,36.81
2019-02-21T09:03:10.225Z,36.50
2019-02-21T09:04:10.937Z,36.06
2019-02-21T09:05:05.346Z,35.56
2019-02-21T09:06:01.940Z,35.06
2019-02-21T09:06:58.546Z,34.38
2019-02-21T09:07:55.172Z,33.63
2019-02-21T09:08:51.993Z,32.81
2019-02-21T09:09:48.598Z,31.94
2019-02-21T09:10:45.182Z,31.19
2019-02-21T09:11:42.317Z,30.75
2019-02-21T09:12:39.039Z,31.12
2019-02-21T09:13:35.634Z,32.31
2019-02-21T09:14:32.336Z,33.81
2019-02-21T09:15:28.943Z,35.31
2019-02-21T09:16:25.583Z,36.38
2019-02-21T09:17:22.298Z,36.75
2019-02-21T09:18:18.998Z,36.75
2019-02-21T09:19:15.637Z,36.56
2019-02-21T09:20:12.237Z,36.25
2019-02-21T09:21:08.845Z,35.81
2019-02-21T09:22:05.457Z,35.31
2019-02-21T09:23:02.064Z,34.81
2019-02-21T09:23:58.670Z,34.13
2019-02-21T09:24:55.266Z,33.38
2019-02-21T09:25:52.222Z,32.63
2019-02-21T09:26:48.826Z,31.81
2019-02-21T09:27:45.501Z,31.00
2019-02-21T09:28:42.371Z,30.56
2019-02-21T09:29:39.071Z,30.88
2019-02-21T09:30:35.971Z,32.00
2019-02-21T09:31:32.569Z,33.44
2019-02-21T09:32:29.164Z,34.88
2019-02-21T09:33:25.792Z,36.00
2019-02-21T09:34:22.400Z,36.44
2019-02-21T09:35:19.025Z,36.44
2019-02-21T09:36:15.814Z,36.19
2019-02-21T09:37:12.510Z,35.81
2019-02-21T09:38:09.229Z,35.31
2019-02-21T09:39:05.878Z,34.75
2019-02-21T09:40:02.638Z,34.19
2019-02-21T09:40:59.230Z,33.56
2019-02-21T09:41:55.841Z,32.81
2019-02-21T09:42:52.542Z,32.06
2019-02-21T09:43:51.063Z,31.31
2019-02-21T09:44:49.739Z,30.69
2019-02-21T09:45:46.414Z,30.31
2019-02-21T09:46:43.125Z,30.88
2019-02-21T09:47:39.915Z,32.00
2019-02-21T09:48:36.691Z,33.44
2019-02-21T09:49:33.285Z,34.88
2019-02-21T09:50:29.869Z,35.88
2019-02-21T09:51:26.485Z,36.25
2019-02-21T09:52:23.090Z,36.19
2019-02-21T09:53:19.875Z,35.81
2019-02-21T09:54:19.010Z,35.38
2019-02-21T09:55:15.081Z,34.88
2019-02-21T09:56:11.682Z,34.25
2019-02-21T09:57:13.192Z,33.63
2019-02-21T09:58:06.790Z,32.94
2019-02-21T09:59:03.461Z,32.31
2019-02-21T10:00:00.460Z,31.69
2019-02-21T10:00:57.148Z,31.12
2019-02-21T10:01:53.994Z,30.62
2019-02-21T10:02:53.139Z,30.19
2019-02-21T10:03:49.156Z,29.87
2019-02-21T10:04:45.751Z,29.56
2019-02-21T10:05:42.688Z,29.25
2019-02-21T10:06:39.308Z,28.94
2019-02-21T10:07:37.142Z,28.62
2019-02-21T10:08:33.977Z,28.31
2019-02-21T10:09:30.933Z,28.06
2019-02-21T10:10:27.690Z,27.87
2019-02-21T10:11:24.458Z,27.69
2019-02-21T10:12:21.143Z,27.50
2019-02-21T10:13:17.747Z,27.37
2019-02-21T10:14:14.346Z,27.25
2019-02-21T10:15:10.956Z,27.13
2019-02-21T10:16:07.581Z,27.00
2019-02-21T10:17:04.193Z,26.94
2019-02-21T10:18:00.920Z,26.81
2019-02-21T10:18:57.527Z,26.75
2019-02-21T10:19:54.212Z,26.62
2019-02-21T10:20:50.871Z,26.56
2019-02-21T10:21:47.517Z,26.44
2019-02-21T10:22:44.325Z,26.37
2019-02-21T10:23:42.158Z,26.31
2019-02-21T10:24:38.951Z,26.25
2019-02-21T10:25:35.681Z,26.12
2019-02-21T10:26:32.434Z,26.06
2019-02-21T10:27:29.133Z,26.00
2019-02-21T10:28:25.735Z,25.94
2019-02-21T10:29:22.345Z,25.81
2019-02-21T10:30:19.803Z,25.75
2019-02-21T10:31:16.445Z,25.69
2019-02-21T10:32:13.029Z,25.62
2019-02-21T10:33:09.664Z,25.56
2019-02-21T10:34:06.269Z,25.50
2019-02-21T10:35:03.030Z,25.44
2019-02-21T10:36:00.539Z,25.37
2019-02-21T10:36:57.411Z,25.31
2019-02-21T10:37:54.302Z,25.25
2019-02-21T10:38:50.902Z,25.12
2019-02-21T10:39:47.997Z,25.12
2019-02-21T10:40:44.916Z,25.06
2019-02-21T10:41:41.602Z,25.00
2019-02-21T10:42:38.301Z,24.94
2019-02-21T10:43:35.069Z,24.87
2019-02-21T10:44:31.702Z,24.81
2019-02-21T10:45:28.677Z,24.75
2019-02-21T10:46:25.402Z,24.69
2019-02-21T10:47:22.019Z,24.63
2019-02-21T10:48:18.858Z,24.56
2019-02-21T10:49:15.518Z,24.56
2019-02-21T10:50:13.962Z,24.50
2019-02-21T10:51:10.671Z,24.44
2019-02-21T10:52:07.285Z,24.37
2019-02-21T10:53:04.045Z,24.31
2019-02-21T10:54:00.774Z,24.31
2019-02-21T10:54:57.421Z,24.25
2019-02-21T10:55:54.106Z,24.19
2019-02-21T10:56:50.903Z,24.12
2019-02-21T10:57:47.577Z,24.06
2019-02-21T10:58:44.634Z,24.06
2019-02-21T10:59:46.629Z,24.00
2019-02-21T11:00:39.729Z,23.94
2019-02-21T11:01:36.360Z,23.87
2019-02-21T11:02:32.963Z,23.87
2019-02-21T11:03:29.566Z,23.81
2019-02-21T11:04:26.181Z,23.75
2019-02-21T11:05:22.933Z,23.75
2019-02-21T11:06:19.593Z,23.69
2019-02-21T11:07:16.193Z,23.62
2019-02-21T11:08:12.840Z,23.62
2019-02-21T11:09:13.361Z,23.56
2019-02-21T11:10:10.080Z,23.50
2019-02-21T11:11:06.758Z,23.44
2019-02-21T11:12:03.738Z,23.44
2019-02-21T11:13:00.433Z,23.38
2019-02-21T11:13:57.031Z,23.38
2019-02-21T11:14:53.648Z,23.31
2019-02-21T11:15:50.241Z,23.25
2019-02-21T11:16:46.913Z,23.25
2019-02-21T11:17:43.634Z,23.19
2019-02-21T11:18:40.308Z,23.19
2019-02-21T11:19:36.930Z,23.12
2019-02-21T11:20:33.530Z,23.12
2019-02-21T11:21:30.146Z,23.06
2019-02-21T11:22:26.747Z,23.00
2019-02-21T11:23:23.643Z,23.00
2019-02-21T11:24:20.642Z,22.94
2019-02-21T11:25:17.249Z,22.94
2019-02-21T11:26:15.075Z,22.87
2019-02-21T11:27:12.009Z,22.87
2019-02-21T11:28:08.817Z,22.81
2019-02-21T11:29:05.495Z,22.81
2019-02-21T11:30:02.093Z,22.75
2019-02-21T11:30:58.682Z,22.75
2019-02-21T11:31:55.316Z,22.69
2019-02-21T11:32:52.041Z,22.69
2019-02-21T11:33:48.689Z,22.69
2019-02-21T11:34:45.369Z,22.62
2019-02-21T11:35:41.983Z,22.62
2019-02-21T11:36:38.591Z,22.56
2019-02-21T11:37:42.716Z,22.56
2019-02-21T11:38:33.701Z,22.50
2019-02-21T11:39:30.305Z,22.50
2019-02-21T11:40:27.497Z,22.44
2019-02-21T11:41:24.117Z,22.44
2019-02-21T11:42:20.829Z,22.37
2019-02-21T11:43:17.460Z,22.37
2019-02-21T11:44:14.073Z,22.31
2019-02-21T11:45:10.886Z,22.31
2019-02-21T11:46:07.486Z,22.31
2019-02-21T11:47:04.118Z,22.25
2019-02-21T11:48:00.855Z,22.25
2019-02-21T11:48:57.879Z,22.19
2019-02-21T11:49:54.734Z,22.19
2019-02-21T11:50:51.367Z,22.19
2019-02-21T11:51:48.067Z,22.13
2019-02-21T11:52:44.807Z,22.13
2019-02-21T11:53:41.637Z,22.13
2019-02-21T11:54:38.257Z,22.06
2019-02-21T11:55:34.863Z,22.06
2019-02-21T11:56:31.554Z,22.00
2019-02-21T11:57:28.175Z,22.00
2019-02-21T11:58:24.933Z,22.00
2019-02-21T11:59:21.615Z,21.94
2019-02-21T12:00:18.293Z,21.94
2019-02-21T12:01:15.255Z,21.94
2019-02-21T12:02:11.853Z,21.87
2019-02-21T12:03:08.629Z,21.87
2019-02-21T12:04:05.347Z,21.87
2019-02-21T12:05:01.950Z,21.81
2019-02-21T12:05:58.555Z,21.81
2019-02-21T12:06:55.154Z,21.81
2019-02-21T12:07:51.773Z,21.75
2019-02-21T12:08:48.399Z,21.75
2019-02-21T12:09:45.109Z,21.75
2019-02-21T12:10:41.749Z,21.69
2019-02-21T12:11:38.370Z,21.69
2019-02-21T12:12:35.034Z,21.69
2019-02-21T12:13:31.666Z,21.62
2019-02-21T12:14:28.261Z,21.62
2019-02-21T12:15:25.050Z,21.62
2019-02-21T12:16:21.755Z,21.62
2019-02-21T12:17:18.361Z,21.56
2019-02-21T12:18:14.961Z,21.56
2019-02-21T12:19:11.602Z,21.56
2019-02-21T12:20:08.234Z,21.50
2019-02-21T12:21:04.809Z,21.50
2019-02-21T12:22:01.543Z,21.50
2019-02-21T12:22:58.173Z,21.50
2019-02-21T12:23:55.430Z,21.44
2019-02-21T12:24:52.022Z,21.44
2019-02-21T12:25:48.649Z,21.44